Caribou — WDI3596 — position and weather

sailwx.info

Track history (hours):
 
Tides and Currents Weather Stations Pressure Air Temp Water Temp Dewpoint Dewpoint Depression Visibility Wind Speed Wind Dir Waves Ship Positions

Caribou

Owner: Adriatic Marine LLC, Raceland, LA. More information available from US FCC via Universal Licensing System and Coast Guard Vessel Documentation Center.

Last reported at 2018-Feb-22 21:09 UTC. Time now 2018-Feb-23 20:22 UTC.
Position N 29°35' W 092°18'.

Length 59 m; draft 3.5 m.

Type: Cargo ship. MMSI: 367689970.

Date/timePositionNaut miles runAvg speedWind from/ knotsBaromVisibWave heightAir tempDewpointWater temp
2018-Feb-22 21:09N 29°35' W 092°18'1 6.5
2018-Feb-22 20:59N 29°36' W 092°17'3 6.5
2018-Feb-22 20:30N 29°39' W 092°16'4 7.2
2018-Feb-22 20:00N 29°43' W 092°15'3 7.0
2018-Feb-22 19:30N 29°45' W 092°12'2 0.4
2018-Feb-22 14:18N 29°47' W 092°10'1 2.1
2018-Feb-22 13:58N 29°47' W 092°10'1 2.5
2018-Feb-22 13:30N 29°48' W 092°09'0 0.1
2018-Feb-22 13:00N 29°48' W 092°08'2 3.4
2018-Feb-22 12:30N 29°47' W 092°10'0 0.3
2018-Feb-22 12:00N 29°47' W 092°10'0 0.0
2018-Feb-22 11:30N 29°47' W 092°10'0 0.0
2018-Feb-22 11:00N 29°47' W 092°10'0 0.0
2018-Feb-22 10:30N 29°47' W 092°10'0 0.0
2018-Feb-22 10:00N 29°47' W 092°10'0 0.0
2018-Feb-22 09:30N 29°47' W 092°10'0 0.0
2018-Feb-22 09:00N 29°47' W 092°10'0 0.0
2018-Feb-22 08:30N 29°47' W 092°10'0 0.0
2018-Feb-22 07:58N 29°47' W 092°10'0 0.0
2018-Feb-22 07:30N 29°47' W 092°10'0 0.5
2018-Feb-22 07:00N 29°47' W 092°11'1 1.3
2018-Feb-22 06:30N 29°47' W 092°11'0 0.0
2018-Feb-22 06:00N 29°47' W 092°11'0 0.0
2018-Feb-22 05:30N 29°47' W 092°11'0 0.0
2018-Feb-22 05:00N 29°47' W 092°11'0 0.0
2018-Feb-22 04:30N 29°47' W 092°11'0 0.8
2018-Feb-22 04:00N 29°47' W 092°11'2 4.9
2018-Feb-22 03:30N 29°45' W 092°13'3 6.2
2018-Feb-22 03:00N 29°42' W 092°15'3 6.1
2018-Feb-22 02:28N 29°39' W 092°16'  
2018-Feb-14 06:17N 29°36' W 092°18'2 6.4
2018-Feb-14 06:00N 29°37' W 092°17'3 6.7
2018-Feb-14 05:30N 29°40' W 092°15'4 7.4
2018-Feb-14 05:00N 29°44' W 092°14'4 7.0
2018-Feb-14 04:30N 29°46' W 092°11'  
Track history (hours):
 
Tides and Currents Weather Stations Pressure Air Temp Water Temp Dewpoint Dewpoint Depression Visibility Wind Speed Wind Dir Waves Ship Positions

Caribou

Owner: Adriatic Marine LLC, Raceland, LA. More information available from US FCC via Universal Licensing System and Coast Guard Vessel Documentation Center.

Last reported at 2018-Feb-22 21:09 UTC. Time now 2018-Feb-23 20:22 UTC.
Position N 29°35' W 092°18'.

Length 59 m; draft 3.5 m.

Type: Cargo ship. MMSI: 367689970.

Date/timePositionNaut miles runAvg speedWind from/ knotsBaromVisibWave heightAir tempDewpointWater temp
2018-Feb-22 21:09N 29°35' W 092°18'1 6.5
2018-Feb-22 20:59N 29°36' W 092°17'3 6.5
2018-Feb-22 20:30N 29°39' W 092°16'4 7.2
2018-Feb-22 20:00N 29°43' W 092°15'3 7.0
2018-Feb-22 19:30N 29°45' W 092°12'2 0.4
2018-Feb-22 14:18N 29°47' W 092°10'1 2.1
2018-Feb-22 13:58N 29°47' W 092°10'1 2.5
2018-Feb-22 13:30N 29°48' W 092°09'0 0.1
2018-Feb-22 13:00N 29°48' W 092°08'2 3.4
2018-Feb-22 12:30N 29°47' W 092°10'0 0.3
2018-Feb-22 12:00N 29°47' W 092°10'0 0.0
2018-Feb-22 11:30N 29°47' W 092°10'0 0.0
2018-Feb-22 11:00N 29°47' W 092°10'0 0.0
2018-Feb-22 10:30N 29°47' W 092°10'0 0.0
2018-Feb-22 10:00N 29°47' W 092°10'0 0.0
2018-Feb-22 09:30N 29°47' W 092°10'0 0.0
2018-Feb-22 09:00N 29°47' W 092°10'0 0.0
2018-Feb-22 08:30N 29°47' W 092°10'0 0.0
2018-Feb-22 07:58N 29°47' W 092°10'0 0.0
2018-Feb-22 07:30N 29°47' W 092°10'0 0.5
2018-Feb-22 07:00N 29°47' W 092°11'1 1.3
2018-Feb-22 06:30N 29°47' W 092°11'0 0.0
2018-Feb-22 06:00N 29°47' W 092°11'0 0.0
2018-Feb-22 05:30N 29°47' W 092°11'0 0.0
2018-Feb-22 05:00N 29°47' W 092°11'0 0.0
2018-Feb-22 04:30N 29°47' W 092°11'0 0.8
2018-Feb-22 04:00N 29°47' W 092°11'2 4.9
2018-Feb-22 03:30N 29°45' W 092°13'3 6.2
2018-Feb-22 03:00N 29°42' W 092°15'3 6.1
2018-Feb-22 02:28N 29°39' W 092°16'  
2018-Feb-14 06:17N 29°36' W 092°18'2 6.4
2018-Feb-14 06:00N 29°37' W 092°17'3 6.7
2018-Feb-14 05:30N 29°40' W 092°15'4 7.4
2018-Feb-14 05:00N 29°44' W 092°14'4 7.0
2018-Feb-14 04:30N 29°46' W 092°11'  

Dump ship's entire track history